Leyendecker II PSRC Data

Date Time Air Temperature Relative Humidity Dewpoint Windchill Heat Index Wind Speed Wind Dir. Rain Solar Radiation Soil Temperature
2m 2m 3m 3m 10cm
US/Mountain F % F F F MPH deg in MJ/m^2 F
max avg avg
2021-05-04 00:05:00 60.8 30.3 29.4 60.8 60.8 2.4 3.0 1.7 149.4 248.7 0.00 0.0000000 61.6
2021-05-04 00:10:00 60.3 29.8 28.6 60.3 60.3 5.6 6.9 5.1 144.3 141.4 0.00 0.0000000 61.5
2021-05-04 00:15:00 60.7 29.1 28.4 60.7 60.7 3.8 6.0 4.4 139.4 141.8 0.00 0.0000000 61.5
2021-05-04 00:20:00 61.4 27.7 27.7 61.4 61.4 1.2 5.5 2.7 239.2 132.7 0.00 0.0000000 61.5
2021-05-04 00:25:00 61.6 30.2 30.0 61.6 61.6 2.6 4.7 2.6 233.3 231.4 0.00 0.0000000 61.4
2021-05-04 00:30:00 61.3 41.7 37.8 61.3 61.3 5.1 5.8 4.5 169.5 176.7 0.00 0.0000000 61.4
2021-05-04 00:35:00 61.1 41.6 37.5 61.1 61.1 2.4 4.7 2.9 161.0 146.5 0.00 0.0000000 61.4
2021-05-04 00:40:00 60.6 43.8 38.4 60.6 60.6 3.3 4.4 3.3 161.5 156.3 0.00 0.0000000 61.4
2021-05-04 00:45:00 60.0 45.4 38.9 60.0 60.0 3.7 4.9 3.9 199.1 166.8 0.00 0.0000000 61.4
2021-05-04 00:50:00 58.8 45.1 37.6 58.8 58.8 3.1 4.6 3.9 207.0 201.6 0.00 0.0000000 61.3
2021-05-04 00:55:00 58.0 49.8 39.4 58.0 58.0 2.2 3.7 2.6 153.9 194.1 0.00 0.0000000 61.3
2021-05-04 01:00:00 57.8 49.7 39.1 57.8 57.8 2.2 3.5 2.4 232.1 186.2 0.00 0.0000000 61.3
2021-05-04 01:05:00 57.5 51.3 39.7 57.5 57.5 2.8 3.1 2.5 181.0 230.9 0.00 0.0000000 61.3
2021-05-04 01:10:00 57.7 50.6 39.5 57.7 57.7 4.4 4.7 3.5 179.2 177.4 0.00 0.0000000 61.3
2021-05-04 01:15:00 57.9 49.7 39.2 57.9 57.9 3.3 4.9 3.5 171.8 178.9 0.00 0.0000000 61.2
2021-05-04 01:20:00 57.6 50.3 39.2 57.6 57.6 2.4 3.3 2.6 207.8 186.2 0.00 0.0000000 61.2
2021-05-04 01:25:00 56.7 52.1 39.3 56.7 56.7 2.1 2.6 2.1 172.0 192.2 0.00 0.0000000 61.2
2021-05-04 01:30:00 56.4 52.8 39.3 56.4 56.4 3.0 3.5 2.8 167.6 159.7 0.00 0.0000000 61.1
2021-05-04 01:35:00 56.2 53.6 39.6 56.2 56.2 2.8 3.1 2.7 204.2 196.7 0.00 0.0000000 61.1
2021-05-04 01:40:00 55.3 54.4 39.1 55.3 55.3 3.1 3.5 3.1 207.3 204.8 0.00 0.0000000 61.1
2021-05-04 01:45:00 54.7 57.4 40.0 54.7 54.7 2.2 3.5 2.8 202.9 209.4 0.00 0.0000000 61.1
2021-05-04 01:50:00 54.5 58.4 40.2 54.5 54.5 2.4 2.8 2.3 197.0 204.7 0.00 0.0000000 61.1
2021-05-04 01:55:00 54.2 58.8 40.1 54.2 54.2 2.2 3.0 2.6 205.3 201.6 0.00 0.0000000 61.0
2021-05-04 02:00:00 54.2 58.9 40.1 54.2 54.2 1.5 3.7 2.0 204.2 211.9 0.00 0.0000000 61.0
2021-05-04 02:05:00 53.7 59.7 40.0 53.7 53.7 2.8 3.5 2.4 186.6 195.9 0.00 0.0000000 61.0
2021-05-04 02:10:00 53.6 59.6 39.8 53.6 53.6 3.3 4.7 3.2 190.1 176.7 0.00 0.0000000 60.9
2021-05-04 02:15:00 54.2 57.8 39.7 54.2 54.2 4.7 6.3 4.9 195.2 188.1 0.00 0.0000000 60.9
2021-05-04 02:20:00 54.4 55.8 39.0 54.4 54.4 2.4 4.6 3.7 231.5 200.8 0.00 0.0000000 60.9
2021-05-04 02:25:00 54.2 56.3 39.0 54.2 54.2 2.6 3.0 2.2 192.5 198.7 0.00 0.0000000 60.9
2021-05-04 02:30:00 55.0 53.1 38.2 55.0 55.0 3.5 4.9 3.2 167.2 173.4 0.00 0.0000000 60.9
2021-05-04 02:35:00 55.0 54.1 38.7 55.0 55.0 2.4 4.7 2.8 215.7 211.8 0.00 0.0000000 60.8
2021-05-04 02:40:00 54.2 56.4 39.0 54.2 54.2 3.3 4.6 2.6 197.9 208.9 0.00 0.0000000 60.8
2021-05-04 02:45:00 56.0 51.5 38.4 56.0 56.0 6.2 8.7 5.9 165.4 170.6 0.00 0.0000000 60.8
2021-05-04 02:50:00 56.6 50.5 38.4 56.6 56.6 4.0 6.2 5.0 130.1 152.2 0.00 0.0000000 60.7
2021-05-04 02:55:00 57.1 49.7 38.4 57.1 57.1 6.3 8.3 5.4 140.7 140.9 0.00 0.0000000 60.7
2021-05-04 03:00:00 56.7 50.5 38.5 56.7 56.7 5.6 8.3 5.3 157.2 155.6 0.00 0.0000000 60.7
2021-05-04 03:05:00 56.8 50.3 38.5 56.8 56.8 5.6 8.1 5.6 138.2 152.9 0.00 0.0000000 60.7
2021-05-04 03:10:00 56.6 50.5 38.4 56.6 56.6 6.0 7.6 5.9 113.1 142.9 0.00 0.0000000 60.7
2021-05-04 03:15:00 56.3 50.9 38.4 56.3 56.3 4.2 6.5 5.0 174.8 147.6 0.00 0.0000000 60.6
2021-05-04 03:20:00 56.3 50.6 38.2 56.3 56.3 6.2 7.6 5.6 175.3 164.3 0.00 0.0000000 60.6
2021-05-04 03:25:00 56.1 51.5 38.5 56.1 56.1 3.7 7.2 5.5 146.0 161.0 0.00 0.0000000 60.6
2021-05-04 03:30:00 55.7 51.6 38.2 55.7 55.7 6.0 8.1 4.5 138.5 138.6 0.00 0.0000000 60.6
2021-05-04 03:35:00 56.0 51.1 38.2 56.0 56.0 6.2 8.1 6.2 157.5 149.5 0.00 0.0000000 60.5
2021-05-04 03:40:00 55.7 52.0 38.3 55.7 55.7 5.8 8.8 6.5 179.5 171.1 0.00 0.0000000 60.5
2021-05-04 03:45:00 55.5 53.2 38.7 55.5 55.5 5.3 7.4 5.6 191.6 171.0 0.00 0.0000000 60.5
2021-05-04 03:50:00 55.1 53.8 38.6 55.1 55.1 6.7 8.7 5.8 185.9 172.2 0.00 0.0000000 60.5
2021-05-04 03:55:00 55.1 53.4 38.5 55.1 55.1 7.6 9.0 7.4 149.4 162.8 0.00 0.0000000 60.5
2021-05-04 04:00:00 55.2 53.7 38.7 55.2 55.2 7.1 10.8 8.2 170.1 160.7 0.00 0.0000000 60.4
2021-05-04 04:05:00 55.2 53.6 38.7 55.2 55.2 7.4 9.4 7.8 183.3 157.3 0.00 0.0000000 60.4
2021-05-04 04:10:00 55.1 53.9 38.7 55.1 55.1 8.1 10.3 8.0 156.5 157.7 0.00 0.0000000 60.4
2021-05-04 04:15:00 55.0 54.0 38.7 55.0 55.0 7.6 10.1 7.3 159.1 159.6 0.00 0.0000000 60.4
2021-05-04 04:20:00 55.0 54.2 38.8 55.0 55.0 6.2 8.5 6.7 146.8 160.6 0.00 0.0000000 60.4
2021-05-04 04:25:00 55.2 54.2 38.9 55.2 55.2 8.8 10.1 7.7 172.3 161.0 0.00 0.0000000 60.4
2021-05-04 04:30:00 54.8 54.9 38.9 54.8 54.8 8.5 10.1 8.5 163.8 163.2 0.00 0.0000000 60.3
2021-05-04 04:35:00 54.5 56.1 39.1 54.5 54.5 8.0 8.8 7.7 161.7 161.2 0.00 0.0000000 60.3
2021-05-04 04:40:00 54.2 56.2 38.9 54.2 54.2 5.1 9.0 6.5 132.9 152.4 0.00 0.0000000 60.3
2021-05-04 04:45:00 54.1 53.3 37.4 54.1 54.1 5.1 6.0 4.6 122.8 120.5 0.00 0.0000000 60.3
2021-05-04 04:50:00 53.4 54.2 37.3 53.4 53.4 3.0 5.6 3.9 147.1 116.1 0.00 0.0000000 60.3
2021-05-04 04:55:00 53.0 53.1 36.4 53.0 53.0 3.1 3.7 2.9 139.8 132.3 0.00 0.0000000 60.2
2021-05-04 05:00:00 52.8 53.0 36.1 52.8 52.8 3.8 4.6 3.1 123.4 120.1 0.00 0.0000000 60.2
2021-05-04 05:05:00 52.3 54.2 36.2 52.3 52.3 2.8 5.5 4.1 75.7 92.3 0.00 0.0000000 60.2
2021-05-04 05:10:00 51.4 55.2 35.9 51.4 51.4 3.5 4.0 1.9 92.3 92.7 0.00 0.0000000 60.2
2021-05-04 05:15:00 51.3 55.5 35.9 51.3 51.3 1.9 3.5 2.1 46.5 83.3 0.00 0.0000000 60.2
2021-05-04 05:20:00 51.2 55.1 35.6 51.2 51.2 3.0 3.1 1.9 36.6 58.8 0.00 0.0000000 60.2
2021-05-04 05:25:00 50.8 55.1 35.3 50.8 50.8 1.9 3.7 2.3 37.8 0.6 0.00 0.0000000 60.1
2021-05-04 05:30:00 50.6 55.3 35.2 50.6 50.6 2.2 2.6 1.1 311.6 357.5 0.00 0.0000000 60.1
2021-05-04 05:35:00 50.0 58.1 35.8 50.0 50.0 1.9 2.1 1.8 171.5 254.2 0.00 0.0000000 60.1
2021-05-04 05:40:00 50.1 56.7 35.3 50.1 50.1 1.7 2.1 1.5 171.5 175.4 0.00 0.0000000 60.1
2021-05-04 05:45:00 50.0 56.5 35.2 50.0 50.0 0.0 1.7 0.7 222.4 144.8 0.00 0.0000000 60.0
2021-05-04 05:50:00 49.7 57.2 35.2 49.7 49.7 0.8 2.1 1.2 208.6 237.2 0.00 0.0000000 60.0
2021-05-04 05:55:00 49.2 59.6 35.8 49.2 49.2 2.2 2.8 2.0 156.7 182.4 0.00 0.0000000 60.0
2021-05-04 06:00:00 48.8 62.1 36.4 48.8 48.8 0.0 2.6 1.8 162.4 169.2 0.00 0.0000000 60.0
2021-05-04 06:05:00 48.3 63.6 36.5 48.3 48.3 1.7 1.9 1.1 125.1 160.3 0.00 0.0000000 60.0
2021-05-04 06:10:00 47.8 63.9 36.2 47.8 47.8 1.0 1.9 1.1 339.0 168.6 0.00 0.0000000 60.0
2021-05-04 06:15:00 47.5 65.4 36.5 47.5 47.5 1.5 2.2 1.6 231.6 244.8 0.00 0.0001698 60.0
2021-05-04 06:20:00 47.4 61.5 34.8 46.3 47.4 3.5 4.9 2.9 296.4 287.5 0.00 0.0008706 59.9
2021-05-04 06:25:00 46.5 64.7 35.3 45.1 46.5 3.7 4.0 3.0 289.3 295.2 0.00 0.0015797 59.9
2021-05-04 06:30:00 46.4 64.8 35.2 46.4 46.4 3.0 3.5 2.8 278.8 287.0 0.00 0.0027540 59.9
2021-05-04 06:35:00 46.3 65.6 35.4 46.3 46.3 1.3 2.6 2.1 282.2 300.6 0.00 0.0039371 59.9
2021-05-04 06:40:00 46.1 66.8 35.6 46.1 46.1 0.0 1.5 1.1 233.2 257.2 0.00 0.0053489 59.8
2021-05-04 06:45:00 46.0 67.4 35.8 46.0 46.0 1.2 1.2 0.1 174.9 175.6 0.00 0.0065354 59.8
2021-05-04 06:50:00 46.1 70.7 37.1 46.1 46.1 0.0 1.2 0.4 158.3 163.6 0.00 0.0077610 59.8
2021-05-04 06:55:00 46.2 65.6 35.3 46.2 46.2 2.6 2.8 1.4 310.3 308.5 0.00 0.0087968 59.8
2021-05-04 07:00:00 46.4 66.7 35.9 46.4 46.4 1.9 2.6 2.2 307.6 312.8 0.00 0.0098473 59.7
2021-05-04 07:05:00 46.9 66.2 36.2 46.9 46.9 1.7 2.4 1.9 303.2 305.3 0.00 0.0108515 59.7
2021-05-04 07:10:00 47.4 69.4 37.9 47.4 47.4 1.5 1.5 0.5 101.6 294.3 0.00 0.0153094 59.7
2021-05-04 07:15:00 48.1 68.6 38.3 48.1 48.1 1.2 1.9 1.3 34.1 67.2 0.00 0.0418972 59.7
2021-05-04 07:20:00 49.2 63.8 37.5 49.2 49.2 0.8 1.5 1.2 302.2 338.3 0.00 0.0486194 59.7
2021-05-04 07:25:00 50.6 62.2 38.2 50.6 50.6 0.0 1.9 0.6 302.4 292.2 0.00 0.0533703 59.6
2021-05-04 07:30:00 52.8 58.9 38.8 52.8 52.8 1.5 2.2 0.9 117.2 121.2 0.00 0.0582142 59.6
2021-05-04 07:35:00 53.2 58.7 39.1 53.2 53.2 0.0 3.3 2.1 228.0 157.7 0.00 0.0631507 59.6
2021-05-04 07:40:00 54.0 55.4 38.4 54.0 54.0 2.1 3.0 1.1 344.3 302.5 0.00 0.0683185 59.6
2021-05-04 07:45:00 54.8 53.5 38.2 54.8 54.8 3.8 3.8 2.5 294.8 296.7 0.00 0.0736309 59.6
2021-05-04 07:50:00 54.9 54.1 38.7 54.9 54.9 4.0 5.8 3.8 282.5 306.6 0.00 0.0788668 59.5
2021-05-04 07:55:00 55.2 53.0 38.3 55.2 55.2 4.9 4.9 3.9 307.3 303.1 0.00 0.0843451 59.5
2021-05-04 08:00:00 55.5 52.9 38.6 55.5 55.5 3.7 4.7 3.9 310.9 301.4 0.00 0.0897217 59.5
2021-05-04 08:05:00 55.9 51.5 38.3 55.9 55.9 3.7 5.1 3.6 290.4 305.5 0.00 0.0949621 59.5
2021-05-04 08:10:00 56.3 51.3 38.6 56.3 56.3 3.3 5.8 4.2 269.4 291.1 0.00 0.1004819 59.5
2021-05-04 08:15:00 56.6 50.8 38.5 56.6 56.6 5.8 5.8 4.1 339.1 317.4 0.00 0.1059352 59.5
2021-05-04 08:20:00 56.6 53.0 39.6 56.6 56.6 4.6 7.1 5.3 327.8 313.2 0.00 0.1115395 59.5
2021-05-04 08:25:00 57.0 51.0 39.1 57.0 57.0 4.0 7.1 5.1 241.7 306.7 0.00 0.1174070 59.5
2021-05-04 08:30:00 57.9 49.3 39.0 57.9 57.9 4.4 6.2 4.1 305.1 296.5 0.00 0.1229916 59.4
2021-05-04 08:35:00 58.0 48.1 38.4 58.0 58.0 4.9 6.5 4.6 328.6 322.7 0.00 0.1284712 59.4
2021-05-04 08:40:00 57.7 48.7 38.5 57.7 57.7 4.2 7.1 5.1 348.2 339.5 0.00 0.1337923 59.4
2021-05-04 08:45:00 58.3 48.0 38.7 58.3 58.3 3.5 5.5 4.1 297.3 315.3 0.00 0.1394628 59.4
2021-05-04 08:50:00 59.0 46.5 38.5 59.0 59.0 4.7 6.2 3.6 325.0 316.4 0.00 0.1450204 59.4
2021-05-04 08:55:00 58.8 47.5 38.9 58.8 58.8 3.5 5.6 4.1 42.4 3.9 0.00 0.1504218 59.4
2021-05-04 09:00:00 59.4 45.8 38.4 59.4 59.4 5.5 7.4 4.1 332.4 10.5 0.00 0.1561972 59.4
2021-05-04 09:05:00 59.6 45.9 38.8 59.6 59.6 3.8 6.2 3.8 16.9 4.8 0.00 0.1615499 59.4
2021-05-04 09:10:00 60.9 46.9 40.5 60.9 60.9 5.6 5.6 2.9 74.1 12.3 0.00 0.1671869 59.4
2021-05-04 09:15:00 62.2 44.6 40.3 62.2 62.2 2.6 5.6 2.6 64.7 70.2 0.00 0.1724823 59.4
2021-05-04 09:20:00 62.4 43.6 40.0 62.4 62.4 6.3 6.3 3.4 139.3 55.3 0.00 0.1779174 59.4
2021-05-04 09:25:00 62.8 41.9 39.3 62.8 62.8 6.9 8.1 5.2 97.1 105.5 0.00 0.1832897 59.4
2021-05-04 09:30:00 62.3 41.1 38.3 62.3 62.3 8.3 12.2 7.0 97.2 121.6 0.00 0.1885031 59.5
2021-05-04 09:35:00 62.5 41.1 38.6 62.5 62.5 9.7 12.6 7.8 75.4 102.5 0.00 0.1938207 59.5
2021-05-04 09:40:00 62.5 40.9 38.4 62.5 62.5 11.3 12.4 8.5 98.4 110.8 0.00 0.1988358 59.5
2021-05-04 09:45:00 63.2 39.6 38.2 63.2 63.2 6.2 11.0 7.6 127.5 112.5 0.00 0.2041185 59.5
2021-05-04 09:50:00 63.4 40.8 39.1 63.4 63.4 9.4 11.5 7.6 103.0 114.4 0.00 0.2089804 59.5
2021-05-04 09:55:00 63.7 37.9 37.5 63.7 63.7 6.2 9.6 7.1 137.5 105.4 0.00 0.2140766 59.5
2021-05-04 10:00:00 63.4 39.9 38.6 63.4 63.4 7.6 10.1 6.9 135.7 119.1 0.00 0.2189015 59.6
2021-05-04 10:05:00 64.0 38.4 38.1 64.0 64.0 8.3 11.7 8.8 104.0 121.4 0.00 0.2235717 59.6
2021-05-04 10:10:00 63.4 40.2 38.8 63.4 63.4 6.5 13.3 8.5 143.1 114.6 0.00 0.2281574 59.6
2021-05-04 10:15:00 63.7 38.6 38.0 63.7 63.7 9.7 13.3 8.9 87.8 121.5 0.00 0.2328722 59.6
2021-05-04 10:20:00 64.3 37.9 38.1 64.3 64.3 7.2 11.3 8.1 92.8 113.1 0.00 0.2374541 59.7
2021-05-04 10:25:00 64.3 39.4 39.1 64.3 64.3 8.5 11.0 7.0 105.9 104.0 0.00 0.2416437 59.7
2021-05-04 10:30:00 64.4 38.3 38.5 64.4 64.4 6.9 9.9 7.2 150.3 123.1 0.00 0.2460609 59.8
2021-05-04 10:35:00 65.1 36.9 38.1 65.1 65.1 8.0 8.0 5.1 115.4 107.5 0.00 0.2501335 59.8
2021-05-04 10:40:00 65.8 36.1 38.1 65.8 65.8 6.2 8.3 4.8 101.6 93.1 0.00 0.2542346 59.8
2021-05-04 10:45:00 65.4 36.8 38.4 65.4 65.4 7.1 9.6 6.6 110.5 111.9 0.00 0.2579267 59.9
2021-05-04 10:50:00 65.8 35.6 37.8 65.8 65.8 4.9 9.7 6.9 101.5 141.8 0.00 0.2618170 59.9
2021-05-04 10:55:00 66.6 35.8 38.7 66.6 66.6 5.1 8.3 5.2 178.6 122.2 0.00 0.2660281 59.9
2021-05-04 11:00:00 65.4 36.4 38.0 65.4 65.4 7.1 9.6 7.2 153.3 149.6 0.00 0.2689613 60.0
2021-05-04 11:05:00 65.0 38.4 39.0 65.0 65.0 4.7 8.7 6.5 226.5 173.8 0.00 0.2724945 60.0
2021-05-04 11:10:00 65.9 33.7 36.5 65.9 65.9 6.7 9.6 7.0 149.1 137.5 0.00 0.2758407 60.0
2021-05-04 11:15:00 66.2 33.6 36.7 66.2 66.2 9.4 9.4 5.1 130.9 137.4 0.00 0.2792723 60.1
2021-05-04 11:20:00 66.9 33.3 37.1 66.9 66.9 4.0 9.2 6.4 193.0 149.5 0.00 0.2822814 60.1
2021-05-04 11:25:00 67.0 34.0 37.7 67.0 67.0 5.6 9.9 6.3 175.1 146.3 0.00 0.2853448 60.2
2021-05-04 11:30:00 66.8 33.6 37.2 66.8 66.8 8.3 11.2 6.2 167.9 170.8 0.00 0.2880718 60.2
2021-05-04 11:35:00 67.4 32.9 37.2 67.4 67.4 6.5 11.9 7.7 167.8 155.6 0.00 0.2910051 60.3
2021-05-04 11:40:00 67.8 33.0 37.6 67.8 67.8 7.4 9.6 6.5 159.9 142.6 0.00 0.2933895 60.3
2021-05-04 11:45:00 67.9 32.1 37.1 67.9 67.9 4.9 11.9 7.2 172.5 164.5 0.00 0.2956723 60.4
2021-05-04 11:50:00 68.1 32.3 37.3 68.1 68.1 9.7 10.3 7.1 147.4 161.2 0.00 0.2979784 60.4
2021-05-04 11:55:00 68.7 32.1 37.7 68.7 68.7 5.1 9.2 4.7 120.5 122.0 0.00 0.3001204 60.5
2021-05-04 12:00:00 69.4 31.3 37.7 69.4 69.4 12.2 12.2 5.5 111.6 97.1 0.00 0.3031936 60.5
2021-05-04 12:05:00 68.2 31.9 37.1 68.2 68.2 3.3 10.8 5.9 113.5 126.5 0.00 0.3042952 60.6
2021-05-04 12:10:00 68.5 35.3 40.0 68.5 68.5 2.6 10.8 4.7 129.6 78.0 0.00 0.3064485 60.6
2021-05-04 12:15:00 68.7 30.5 36.5 68.7 68.7 3.3 9.7 6.6 176.6 137.1 0.00 0.3077981 60.7
2021-05-04 12:20:00 70.4 31.1 38.4 70.4 70.4 4.9 10.6 4.5 134.4 165.1 0.00 0.3100447 60.7
2021-05-04 12:25:00 70.3 28.7 36.2 70.3 70.3 2.2 11.5 4.5 75.2 71.5 0.00 0.3111522 60.7
2021-05-04 12:30:00 70.9 33.2 40.5 70.9 70.9 3.0 8.1 4.0 114.8 92.9 0.00 0.3125905 60.8
2021-05-04 12:35:00 70.8 29.4 37.2 70.8 70.8 8.5 19.0 7.1 117.0 112.5 0.00 0.3132299 60.9
2021-05-04 12:40:00 70.1 29.4 36.7 70.1 70.1 6.9 10.6 7.1 131.8 131.8 0.00 0.3141560 60.9
2021-05-04 12:45:00 69.3 32.8 38.8 69.3 69.3 4.2 8.3 5.0 97.9 138.9 0.00 0.3148669 61.0
2021-05-04 12:50:00 70.3 33.6 40.3 70.3 70.3 3.0 9.2 4.0 184.7 166.4 0.00 0.3159137 61.1
2021-05-04 12:55:00 70.8 26.2 34.4 70.8 70.8 4.9 9.4 6.0 106.2 135.7 0.00 0.3167661 61.1
2021-05-04 13:00:00 71.2 31.5 39.5 71.2 71.2 2.1 5.1 2.5 137.5 122.2 0.00 0.3164361 61.2
2021-05-04 13:05:00 72.2 28.1 37.4 72.2 72.2 4.4 5.6 2.7 155.7 144.9 0.00 0.3163174 61.2
2021-05-04 13:10:00 71.8 27.8 36.8 71.8 71.8 9.4 10.5 8.1 98.3 140.2 0.00 0.3156107 61.3
2021-05-04 13:15:00 72.3 27.7 37.1 72.3 72.3 4.6 9.2 5.5 170.5 122.4 0.00 0.3166406 61.4
2021-05-04 13:20:00 72.5 25.6 35.3 72.5 72.5 8.3 8.3 6.1 99.6 149.6 0.00 0.3166043 61.4
2021-05-04 13:25:00 72.1 27.2 36.5 72.1 72.1 5.8 8.7 6.3 156.1 151.9 0.00 0.3165291 61.5
2021-05-04 13:30:00 72.3 26.8 36.2 72.3 72.3 8.1 15.3 7.4 188.9 171.6 0.00 0.3152179 61.6
2021-05-04 13:35:00 72.2 25.2 34.6 72.2 72.2 4.9 9.6 6.2 130.4 168.6 0.00 0.3145377 61.6
2021-05-04 13:40:00 72.8 26.9 36.7 72.8 72.8 5.6 9.0 6.3 38.6 113.1 0.00 0.3135389 61.7
2021-05-04 13:45:00 72.8 24.5 34.4 72.8 72.8 5.6 5.6 4.2 153.7 71.4 0.00 0.3130347 61.8
2021-05-04 13:50:00 73.0 23.8 33.9 73.0 73.0 4.7 8.1 4.7 213.5 131.9 0.00 0.3115329 61.8
2021-05-04 13:55:00 73.4 24.1 34.6 73.4 73.4 6.0 7.1 4.4 110.2 168.2 0.00 0.3105953 61.9
2021-05-04 14:00:00 73.3 22.5 32.7 73.3 73.3 5.6 8.7 5.4 113.8 157.4 0.00 0.3093950 62.0
2021-05-04 14:05:00 73.5 22.2 32.6 73.5 73.5 6.3 9.7 6.6 28.5 91.2 0.00 0.3088469 62.0
2021-05-04 14:10:00 73.5 21.5 31.8 73.5 73.5 4.4 5.6 3.6 127.9 87.0 0.00 0.3072964 62.1
2021-05-04 14:15:00 73.4 22.1 32.4 73.4 73.4 2.6 6.0 2.8 67.3 22.7 0.00 0.3032593 62.2
2021-05-04 14:20:00 74.3 23.8 35.0 74.3 74.3 3.8 5.6 3.2 70.9 86.1 0.00 0.3025547 62.2
2021-05-04 14:25:00 74.7 21.5 32.8 74.7 74.7 3.8 8.5 3.8 98.3 58.5 0.00 0.3004928 62.3
2021-05-04 14:30:00 74.3 20.6 31.3 74.3 74.3 6.7 8.1 4.7 194.9 159.7 0.00 0.2983177 62.3
2021-05-04 14:35:00 74.1 25.0 36.1 74.1 74.1 2.4 9.9 4.1 142.8 197.5 0.00 0.2969169 62.4
2021-05-04 14:40:00 74.6 21.7 32.9 74.6 74.6 2.1 5.3 2.9 255.9 161.5 0.00 0.2946060 62.4
2021-05-04 14:45:00 76.0 24.2 36.8 76.0 76.0 4.7 4.7 2.4 84.9 340.1 0.00 0.2905332 62.5
2021-05-04 14:50:00 76.6 20.7 33.3 76.6 76.6 5.3 7.1 4.7 136.6 133.6 0.00 0.2880294 62.6
2021-05-04 14:55:00 74.5 21.8 32.9 74.5 74.5 5.6 10.5 7.4 201.1 153.3 0.00 0.2838876 62.6
2021-05-04 15:00:00 74.6 21.8 33.0 74.6 74.6 4.0 8.1 4.4 178.8 188.4 0.00 0.2807553 62.7
2021-05-04 15:05:00 75.5 20.8 32.5 75.5 75.5 1.9 6.7 4.2 25.4 218.4 0.00 0.2775799 62.7
2021-05-04 15:10:00 75.8 19.9 31.8 75.8 75.8 5.1 7.1 3.3 174.3 222.5 0.00 0.2742507 62.8
2021-05-04 15:15:00 75.5 22.1 34.0 75.5 75.5 4.9 6.5 4.8 191.7 204.7 0.00 0.2708500 62.8
2021-05-04 15:20:00 75.6 20.2 32.0 75.6 75.6 5.1 9.2 4.5 186.0 230.2 0.00 0.2671451 62.9
2021-05-04 15:25:00 75.8 17.4 28.3 75.8 75.8 8.1 8.5 4.9 181.1 204.1 0.00 0.2647378 62.9
2021-05-04 15:30:00 75.5 16.3 26.6 75.5 75.5 5.3 7.4 4.3 183.9 155.1 0.00 0.2607307 63.0
2021-05-04 15:35:00 76.0 15.5 25.8 76.0 76.0 5.1 8.1 5.5 117.8 163.2 0.00 0.2566147 63.0
2021-05-04 15:40:00 76.0 17.5 28.7 76.0 76.0 4.7 5.8 4.3 118.5 165.9 0.00 0.2517855 63.0
2021-05-04 15:45:00 76.2 16.9 28.0 76.2 76.2 8.0 8.0 5.5 128.4 138.6 0.00 0.2478904 63.1
2021-05-04 15:50:00 75.5 18.6 29.8 75.5 75.5 3.3 7.8 4.2 72.7 96.1 0.00 0.2431812 63.1
2021-05-04 15:55:00 75.9 20.7 32.9 75.9 75.9 2.4 4.6 3.0 41.8 74.2 0.00 0.2390323 63.1
2021-05-04 16:00:00 75.8 16.9 27.7 75.8 75.8 2.8 6.5 4.6 0.2 29.6 0.00 0.2344609 63.2
2021-05-04 16:05:00 76.4 16.7 28.0 76.4 76.4 3.8 7.4 4.1 0.7 1.5 0.00 0.2304648 63.2
2021-05-04 16:10:00 77.5 17.5 29.9 77.5 77.5 2.6 7.6 4.2 252.3 273.4 0.00 0.2259315 63.2
2021-05-04 16:15:00 78.0 15.3 27.0 78.0 78.0 4.0 8.8 5.6 286.0 307.6 0.00 0.2207672 63.3
2021-05-04 16:20:00 77.8 14.2 25.1 77.8 77.8 5.6 6.3 3.7 329.8 302.3 0.00 0.2158252 63.3
2021-05-04 16:25:00 77.5 15.1 26.4 77.5 77.5 3.5 6.0 3.5 98.4 293.0 0.00 0.2101080 63.3
2021-05-04 16:30:00 76.6 17.1 28.7 76.6 76.6 3.3 6.5 4.3 132.9 109.9 0.00 0.2046866 63.3
2021-05-04 16:35:00 77.2 14.5 25.1 77.2 77.2 6.5 8.5 4.9 23.5 18.5 0.00 0.1996870 63.4
2021-05-04 16:40:00 77.2 13.8 24.0 77.2 77.2 5.3 6.0 4.7 311.1 3.7 0.00 0.1942409 63.4
2021-05-04 16:45:00 77.6 13.5 23.7 77.6 77.6 4.2 6.9 5.0 132.3 327.9 0.00 0.1891600 63.4
2021-05-04 16:50:00 78.3 17.8 31.0 78.3 78.3 1.7 4.4 3.0 147.3 44.6 0.00 0.1844753 63.4
2021-05-04 16:55:00 78.4 12.4 22.3 78.4 78.4 4.4 4.9 3.3 19.5 333.4 0.00 0.1784298 63.4
2021-05-04 17:00:00 78.2 14.0 25.1 78.2 78.2 2.1 5.8 2.9 333.6 357.8 0.00 0.1734104 63.4
2021-05-04 17:05:00 78.3 14.6 26.2 78.3 78.3 2.1 4.0 2.5 158.1 68.5 0.00 0.1673154 63.5
2021-05-04 17:10:00 77.9 14.7 26.0 77.9 77.9 5.1 5.1 3.3 153.9 191.6 0.00 0.1615471 63.5
2021-05-04 17:15:00 77.8 17.4 30.1 77.8 77.8 1.9 5.3 3.3 250.5 237.7 0.00 0.1565697 63.5
2021-05-04 17:20:00 77.4 14.2 24.8 77.4 77.4 4.7 8.3 4.5 112.8 165.9 0.00 0.1507852 63.5
2021-05-04 17:25:00 76.8 16.8 28.3 76.8 76.8 2.2 5.8 4.0 85.1 119.8 0.00 0.1449974 63.5
2021-05-04 17:30:00 77.0 15.9 27.2 77.0 77.0 3.7 6.5 4.5 113.4 148.4 0.00 0.1393534 63.5
2021-05-04 17:35:00 77.5 15.4 26.9 77.5 77.5 1.9 6.5 3.7 156.2 145.1 0.00 0.1339805 63.6
2021-05-04 17:40:00 77.8 14.6 25.7 77.8 77.8 5.8 5.8 2.6 153.6 159.0 0.00 0.1282010 63.6
2021-05-04 17:45:00 77.5 14.0 24.5 77.5 77.5 6.0 7.1 5.7 134.8 155.3 0.00 0.1222002 63.6
2021-05-04 17:50:00 77.4 14.1 24.7 77.4 77.4 1.5 5.6 3.0 32.4 148.6 0.00 0.1164544 63.6
2021-05-04 17:55:00 77.5 15.4 26.8 77.5 77.5 2.1 4.2 2.5 258.5 176.9 0.00 0.1110159 63.6
2021-05-04 18:00:00 77.6 15.4 26.9 77.6 77.6 4.7 7.8 4.5 163.2 156.5 0.00 0.1053293 63.6
2021-05-04 18:05:00 77.5 14.5 25.4 77.5 77.5 3.8 8.3 5.9 168.2 161.3 0.00 0.1003571 63.6
2021-05-04 18:10:00 77.5 14.2 24.8 77.5 77.5 4.0 7.6 5.4 107.0 150.9 0.00 0.0952785 63.6
2021-05-04 18:15:00 77.6 14.4 25.4 77.6 77.6 4.4 4.6 2.7 200.5 176.0 0.00 0.0897854 63.6
2021-05-04 18:20:00 77.3 15.7 27.1 77.3 77.3 6.9 8.0 5.3 150.6 140.5 0.00 0.0842234 63.6
2021-05-04 18:25:00 77.2 16.2 27.8 77.2 77.2 3.3 6.3 4.1 142.6 139.3 0.00 0.0789660 63.6
2021-05-04 18:30:00 77.3 17.3 29.4 77.3 77.3 4.2 4.9 2.9 106.5 115.6 0.00 0.0735389 63.6
2021-05-04 18:35:00 77.3 14.6 25.4 77.3 77.3 4.6 5.5 3.6 95.4 116.9 0.00 0.0683798 63.6
2021-05-04 18:40:00 76.9 17.0 28.7 76.9 76.9 4.0 5.6 2.8 106.8 90.1 0.00 0.0629597 63.6
2021-05-04 18:45:00 76.9 16.3 27.7 76.9 76.9 2.4 5.3 3.8 125.6 134.6 0.00 0.0579540 63.6
2021-05-04 18:50:00 76.8 15.7 26.7 76.8 76.8 2.4 4.0 3.1 138.6 116.4 0.00 0.0530408 63.5
2021-05-04 18:55:00 76.7 14.3 24.4 76.7 76.7 2.4 3.8 2.7 150.4 126.6 0.00 0.0482441 63.5
2021-05-04 19:00:00 76.6 16.1 27.1 76.6 76.6 4.0 4.9 3.7 130.0 135.1 0.00 0.0433865 63.5
2021-05-04 19:05:00 76.4 16.5 27.7 76.4 76.4 3.1 4.9 3.8 113.2 138.4 0.00 0.0386373 63.5
2021-05-04 19:10:00 76.0 17.6 28.9 76.0 76.0 4.0 6.3 4.5 136.2 133.1 0.00 0.0338553 63.5
2021-05-04 19:15:00 75.5 17.4 28.3 75.5 75.5 4.0 6.3 4.3 144.3 141.0 0.00 0.0291589 63.5
2021-05-04 19:20:00 75.0 18.7 29.6 75.0 75.0 3.3 5.6 4.0 126.5 141.4 0.00 0.0241417 63.5
2021-05-04 19:25:00 74.4 19.5 30.1 74.4 74.4 2.4 4.4 3.3 146.5 135.2 0.00 0.0070726 63.4
2021-05-04 19:30:00 73.9 19.5 29.6 73.9 73.9 3.1 4.9 3.2 127.1 139.0 0.00 0.0048751 63.4
2021-05-04 19:35:00 73.3 20.4 30.3 73.3 73.3 2.4 4.4 3.3 151.6 140.7 0.00 0.0048749 63.4
2021-05-04 19:40:00 72.8 20.2 29.6 72.8 72.8 3.5 4.0 3.0 124.5 140.8 0.00 0.0027160 63.4
2021-05-04 19:45:00 72.2 21.2 30.3 72.2 72.2 2.6 3.3 2.8 149.6 144.4 0.00 0.0016970 63.4
2021-05-04 19:50:00 71.5 21.5 30.0 71.5 71.5 2.8 3.7 3.1 149.9 158.8 0.00 0.0006667 63.3
2021-05-04 19:55:00 70.6 22.1 30.0 70.6 70.6 3.8 4.2 3.3 162.0 168.5 0.00 0.0000338 63.3
2021-05-04 20:00:00 70.2 22.9 30.6 70.2 70.2 4.0 4.0 3.6 157.9 164.8 0.00 0.0000000 63.3
2021-05-04 20:05:00 69.5 23.8 30.8 69.5 69.5 4.2 4.9 4.4 164.2 166.6 0.00 0.0000000 63.3
2021-05-04 20:10:00 69.1 25.0 31.8 69.1 69.1 4.0 5.8 4.3 166.0 162.2 0.00 0.0000000 63.3
2021-05-04 20:15:00 68.5 26.0 32.2 68.5 68.5 3.5 4.2 3.6 158.1 161.4 0.00 0.0000000 63.2
2021-05-04 20:20:00 68.8 25.3 31.8 68.8 68.8 4.4 4.9 4.4 164.3 164.3 0.00 0.0000000 63.2
2021-05-04 20:25:00 68.5 26.5 32.7 68.5 68.5 2.6 4.9 3.5 153.8 161.7 0.00 0.0000000 63.2
2021-05-04 20:30:00 67.7 27.3 32.8 67.7 67.7 2.8 3.0 2.6 156.2 158.1 0.00 0.0000000 63.2
2021-05-04 20:35:00 67.3 27.7 32.8 67.3 67.3 3.8 3.8 3.0 167.7 162.9 0.00 0.0000000 63.1
2021-05-04 20:40:00 66.4 31.2 35.1 66.4 66.4 2.4 4.4 3.2 156.0 172.3 0.00 0.0000000 63.1
2021-05-04 20:45:00 64.9 35.0 36.6 64.9 64.9 1.7 3.0 2.4 151.3 174.0 0.00 0.0000000 63.1
2021-05-04 20:50:00 63.9 36.4 36.7 63.9 63.9 2.6 3.5 2.2 171.2 163.8 0.00 0.0000000 63.0
2021-05-04 20:55:00 63.6 36.1 36.2 63.6 63.6 3.0 3.7 2.6 163.7 163.9 0.00 0.0000000 63.0
2021-05-04 21:00:00 63.4 36.4 36.2 63.4 63.4 3.3 3.5 2.5 184.3 163.7 0.00 0.0000000 63.0
2021-05-04 21:05:00 63.0 38.8 37.5 63.0 63.0 1.7 2.6 1.9 176.0 174.3 0.00 0.0000000 62.9
2021-05-04 21:10:00 62.5 38.7 37.0 62.5 62.5 1.7 2.1 1.8 148.9 175.8 0.00 0.0000000 62.9
2021-05-04 21:15:00 62.2 38.2 36.4 62.2 62.2 1.7 2.6 1.7 142.4 166.4 0.00 0.0000000 62.9
2021-05-04 21:20:00 62.6 37.9 36.5 62.6 62.6 2.2 3.3 2.6 139.9 145.9 0.00 0.0000000 62.9
2021-05-04 21:25:00 62.6 36.1 35.3 62.6 62.6 2.6 2.8 2.3 122.1 134.2 0.00 0.0000000 62.8
2021-05-04 21:30:00 62.4 36.9 35.7 62.4 62.4 3.1 3.1 2.5 98.6 102.7 0.00 0.0000000 62.8
2021-05-04 21:35:00 62.3 35.4 34.6 62.3 62.3 3.3 3.5 3.2 105.7 101.2 0.00 0.0000000 62.7
2021-05-04 21:40:00 61.8 34.0 33.1 61.8 61.8 2.6 3.3 2.8 110.5 92.4 0.00 0.0000000 62.7
2021-05-04 21:45:00 61.1 37.3 34.8 61.1 61.1 1.9 2.6 1.9 129.9 125.9 0.00 0.0000000 62.7
2021-05-04 21:50:00 61.3 35.7 33.9 61.3 61.3 2.2 2.8 2.2 129.8 126.0 0.00 0.0000000 62.7
2021-05-04 21:55:00 61.1 36.4 34.2 61.1 61.1 3.0 3.0 2.3 128.3 116.2 0.00 0.0000000 62.6
2021-05-04 22:00:00 61.3 36.2 34.2 61.3 61.3 1.5 3.8 2.1 149.3 130.9 0.00 0.0000000 62.6
2021-05-04 22:05:00 60.3 38.4 34.9 60.3 60.3 1.3 1.9 1.4 170.6 158.7 0.00 0.0000000 62.6
2021-05-04 22:10:00 59.5 42.6 36.7 59.5 59.5 2.2 2.2 1.9 195.4 195.2 0.00 0.0000000 62.5
2021-05-04 22:15:00 58.7 44.5 37.2 58.7 58.7 1.7 2.2 1.9 165.3 156.6 0.00 0.0000000 62.5
2021-05-04 22:20:00 58.5 44.2 36.8 58.5 58.5 2.6 2.8 2.2 150.0 160.7 0.00 0.0000000 62.4
2021-05-04 22:25:00 58.8 44.0 36.9 58.8 58.8 2.2 3.0 2.5 147.2 145.3 0.00 0.0000000 62.4
2021-05-04 22:30:00 58.5 41.9 35.4 58.5 58.5 2.2 2.2 1.9 128.7 136.0 0.00 0.0000000 62.4
2021-05-04 22:35:00 58.4 44.5 36.9 58.4 58.4 2.6 2.6 1.8 167.3 147.1 0.00 0.0000000 62.4
2021-05-04 22:40:00 57.9 46.9 37.7 57.9 57.9 1.2 2.2 2.0 145.9 151.9 0.00 0.0000000 62.3
2021-05-04 22:45:00 57.5 45.9 36.8 57.5 57.5 1.7 1.7 1.3 113.3 120.4 0.00 0.0000000 62.3
2021-05-04 22:50:00 57.2 47.7 37.5 57.2 57.2 2.2 2.4 2.0 132.7 128.3 0.00 0.0000000 62.3
2021-05-04 22:55:00 56.9 49.0 37.9 56.9 56.9 1.9 2.8 2.2 118.8 122.7 0.00 0.0000000 62.2
2021-05-04 23:00:00 56.4 50.1 38.1 56.4 56.4 0.0 2.1 1.0 115.3 117.1 0.00 0.0000000 62.2
2021-05-04 23:05:00 56.1 50.0 37.7 56.1 56.1 1.5 1.5 0.8 123.7 127.3 0.00 0.0000000 62.2
2021-05-04 23:10:00 56.1 48.9 37.1 56.1 56.1 1.3 2.1 1.6 185.6 147.7 0.00 0.0000000 62.1
2021-05-04 23:15:00 55.8 48.6 36.6 55.8 55.8 1.9 1.9 1.6 148.0 163.8 0.00 0.0000000 62.1
2021-05-04 23:20:00 56.3 47.7 36.7 56.3 56.3 1.2 2.8 1.9 146.3 157.7 0.00 0.0000000 62.1
2021-05-04 23:25:00 55.7 49.2 36.9 55.7 55.7 0.0 0.8 0.1 177.8 162.3 0.00 0.0000000 62.0
2021-05-04 23:30:00 54.8 50.8 36.9 54.8 54.8 1.2 1.3 0.2 27.3 27.5 0.00 0.0000000 62.0
2021-05-04 23:35:00 54.4 51.2 36.7 54.4 54.4 0.0 1.0 0.1 27.3 27.3 0.00 0.0000000 62.0
2021-05-04 23:40:00 54.4 48.1 35.1 54.4 54.4 1.2 1.2 0.3 230.6 282.7 0.00 0.0000000 61.9
2021-05-04 23:45:00 54.4 48.1 35.2 54.4 54.4 0.0 1.0 0.4 205.1 218.5 0.00 0.0000000 61.9
2021-05-04 23:50:00 54.9 48.5 35.8 54.9 54.9 1.7 2.1 1.3 161.6 177.8 0.00 0.0000000 61.9
2021-05-04 23:55:00 55.0 48.6 36.0 55.0 55.0 1.5 1.9 1.7 132.3 159.3 0.00 0.0000000 61.8
2021-05-05 00:00:00 55.1 46.7 35.0 55.1 55.1 2.1 2.1 1.8 139.2 128.3 0.00 0.0000000 61.8

Data is courtesy of the NM Climate Center. DO NOT USE IN LEGAL PROCEEDINGS.